sensor_id;sensor_type;location;lat;lon;timestamp;P1;durP1;ratioP1;P2;durP2;ratioP2
59442;SDS011;45247;47.466;19.004;2024-02-21T00:00:46;6.70;;;4.07;;
59442;SDS011;45247;47.466;19.004;2024-02-21T00:03:15;5.55;;;3.17;;
59442;SDS011;45247;47.466;19.004;2024-02-21T00:05:43;4.53;;;3.28;;
59442;SDS011;45247;47.466;19.004;2024-02-21T00:08:11;5.05;;;3.47;;
59442;SDS011;45247;47.466;19.004;2024-02-21T00:10:41;6.00;;;3.90;;
59442;SDS011;45247;47.466;19.004;2024-02-21T00:13:09;6.35;;;3.80;;
59442;SDS011;45247;47.466;19.004;2024-02-21T00:15:37;4.65;;;3.35;;
59442;SDS011;45247;47.466;19.004;2024-02-21T00:18:05;5.22;;;3.50;;
59442;SDS011;45247;47.466;19.004;2024-02-21T00:20:34;5.55;;;3.50;;
59442;SDS011;45247;47.466;19.004;2024-02-21T00:23:02;5.70;;;3.28;;
59442;SDS011;45247;47.466;19.004;2024-02-21T00:25:30;4.63;;;2.97;;
59442;SDS011;45247;47.466;19.004;2024-02-21T00:28:00;7.20;;;3.50;;
59442;SDS011;45247;47.466;19.004;2024-02-21T00:30:28;4.75;;;2.70;;
59442;SDS011;45247;47.466;19.004;2024-02-21T00:32:56;3.85;;;2.83;;
59442;SDS011;45247;47.466;19.004;2024-02-21T00:35:25;8.85;;;2.53;;
59442;SDS011;45247;47.466;19.004;2024-02-21T00:37:53;5.20;;;2.90;;
59442;SDS011;45247;47.466;19.004;2024-02-21T00:40:23;4.50;;;2.53;;
59442;SDS011;45247;47.466;19.004;2024-02-21T00:42:51;5.80;;;2.60;;
59442;SDS011;45247;47.466;19.004;2024-02-21T00:45:21;4.28;;;2.80;;
59442;SDS011;45247;47.466;19.004;2024-02-21T00:47:50;4.50;;;2.20;;
59442;SDS011;45247;47.466;19.004;2024-02-21T00:50:18;5.03;;;2.50;;
59442;SDS011;45247;47.466;19.004;2024-02-21T00:52:46;4.07;;;2.35;;
59442;SDS011;45247;47.466;19.004;2024-02-21T00:55:16;6.22;;;2.45;;
59442;SDS011;45247;47.466;19.004;2024-02-21T00:57:44;2.97;;;2.00;;
59442;SDS011;45247;47.466;19.004;2024-02-21T01:00:12;6.40;;;2.80;;
59442;SDS011;45247;47.466;19.004;2024-02-21T01:02:42;5.22;;;2.60;;
59442;SDS011;45247;47.466;19.004;2024-02-21T01:05:10;4.47;;;2.20;;
59442;SDS011;45247;47.466;19.004;2024-02-21T01:07:38;5.03;;;2.47;;
59442;SDS011;45247;47.466;19.004;2024-02-21T01:10:07;5.82;;;2.40;;
59442;SDS011;45247;47.466;19.004;2024-02-21T01:12:36;3.33;;;2.20;;
59442;SDS011;45247;47.466;19.004;2024-02-21T01:15:04;6.55;;;3.60;;
59442;SDS011;45247;47.466;19.004;2024-02-21T01:17:33;4.82;;;2.15;;
59442;SDS011;45247;47.466;19.004;2024-02-21T01:20:02;4.80;;;2.17;;
59442;SDS011;45247;47.466;19.004;2024-02-21T01:22:33;3.17;;;1.98;;
59442;SDS011;45247;47.466;19.004;2024-02-21T01:25:01;5.65;;;2.13;;
59442;SDS011;45247;47.466;19.004;2024-02-21T01:27:29;3.20;;;2.05;;
59442;SDS011;45247;47.466;19.004;2024-02-21T01:29:58;4.57;;;1.85;;
59442;SDS011;45247;47.466;19.004;2024-02-21T01:32:26;4.00;;;1.73;;
59442;SDS011;45247;47.466;19.004;2024-02-21T01:34:54;4.32;;;2.13;;
59442;SDS011;45247;47.466;19.004;2024-02-21T01:37:23;4.30;;;2.33;;
59442;SDS011;45247;47.466;19.004;2024-02-21T01:39:52;5.90;;;2.25;;
59442;SDS011;45247;47.466;19.004;2024-02-21T01:42:20;4.78;;;2.30;;
59442;SDS011;45247;47.466;19.004;2024-02-21T01:44:49;5.20;;;2.53;;
59442;SDS011;45247;47.466;19.004;2024-02-21T01:47:17;3.33;;;1.80;;
59442;SDS011;45247;47.466;19.004;2024-02-21T01:49:46;3.95;;;2.05;;
59442;SDS011;45247;47.466;19.004;2024-02-21T01:52:14;7.50;;;2.53;;
59442;SDS011;45247;47.466;19.004;2024-02-21T01:54:46;4.53;;;2.45;;
59442;SDS011;45247;47.466;19.004;2024-02-21T01:57:15;4.47;;;2.25;;
59442;SDS011;45247;47.466;19.004;2024-02-21T01:59:43;7.30;;;2.28;;
59442;SDS011;45247;47.466;19.004;2024-02-21T02:02:11;5.65;;;2.30;;
59442;SDS011;45247;47.466;19.004;2024-02-21T02:04:39;6.47;;;2.55;;
59442;SDS011;45247;47.466;19.004;2024-02-21T02:07:08;9.57;;;2.50;;
59442;SDS011;45247;47.466;19.004;2024-02-21T02:09:36;6.95;;;2.53;;
59442;SDS011;45247;47.466;19.004;2024-02-21T02:12:06;4.82;;;2.50;;
59442;SDS011;45247;47.466;19.004;2024-02-21T02:14:34;4.47;;;2.00;;
59442;SDS011;45247;47.466;19.004;2024-02-21T02:17:03;4.75;;;2.35;;
59442;SDS011;45247;47.466;19.004;2024-02-21T02:19:31;9.25;;;3.03;;
59442;SDS011;45247;47.466;19.004;2024-02-21T02:22:00;5.38;;;2.25;;
59442;SDS011;45247;47.466;19.004;2024-02-21T02:24:40;7.13;;;2.75;;
59442;SDS011;45247;47.466;19.004;2024-02-21T02:27:08;6.28;;;2.45;;
59442;SDS011;45247;47.466;19.004;2024-02-21T02:29:36;18.55;;;3.10;;
59442;SDS011;45247;47.466;19.004;2024-02-21T02:32:05;7.22;;;2.50;;
59442;SDS011;45247;47.466;19.004;2024-02-21T02:34:33;4.40;;;2.33;;
59442;SDS011;45247;47.466;19.004;2024-02-21T02:37:01;4.75;;;2.20;;
59442;SDS011;45247;47.466;19.004;2024-02-21T02:39:30;5.85;;;2.17;;
59442;SDS011;45247;47.466;19.004;2024-02-21T02:41:59;7.00;;;2.30;;
59442;SDS011;45247;47.466;19.004;2024-02-21T02:44:27;8.48;;;2.80;;
59442;SDS011;45247;47.466;19.004;2024-02-21T02:46:55;6.18;;;2.40;;
59442;SDS011;45247;47.466;19.004;2024-02-21T02:49:23;6.57;;;2.50;;
59442;SDS011;45247;47.466;19.004;2024-02-21T02:51:52;10.02;;;2.80;;
59442;SDS011;45247;47.466;19.004;2024-02-21T02:54:20;5.57;;;2.60;;
59442;SDS011;45247;47.466;19.004;2024-02-21T02:56:49;5.20;;;2.72;;
59442;SDS011;45247;47.466;19.004;2024-02-21T02:59:19;4.97;;;2.60;;
59442;SDS011;45247;47.466;19.004;2024-02-21T03:01:47;5.78;;;2.33;;
59442;SDS011;45247;47.466;19.004;2024-02-21T03:04:15;4.00;;;2.30;;
59442;SDS011;45247;47.466;19.004;2024-02-21T03:06:44;4.30;;;2.45;;
59442;SDS011;45247;47.466;19.004;2024-02-21T03:09:12;5.93;;;2.33;;
59442;SDS011;45247;47.466;19.004;2024-02-21T03:11:41;6.20;;;2.70;;
59442;SDS011;45247;47.466;19.004;2024-02-21T03:14:11;8.68;;;3.47;;
59442;SDS011;45247;47.466;19.004;2024-02-21T03:16:40;8.52;;;3.03;;
59442;SDS011;45247;47.466;19.004;2024-02-21T03:19:08;7.95;;;2.80;;
59442;SDS011;45247;47.466;19.004;2024-02-21T03:21:36;6.13;;;2.53;;
59442;SDS011;45247;47.466;19.004;2024-02-21T03:24:05;7.22;;;2.80;;
59442;SDS011;45247;47.466;19.004;2024-02-21T03:26:33;12.55;;;2.83;;
59442;SDS011;45247;47.466;19.004;2024-02-21T03:29:01;11.73;;;2.88;;
59442;SDS011;45247;47.466;19.004;2024-02-21T03:31:31;5.68;;;2.60;;
59442;SDS011;45247;47.466;19.004;2024-02-21T03:34:00;8.30;;;2.85;;
59442;SDS011;45247;47.466;19.004;2024-02-21T03:36:29;7.05;;;2.70;;
59442;SDS011;45247;47.466;19.004;2024-02-21T03:38:57;4.75;;;2.30;;
59442;SDS011;45247;47.466;19.004;2024-02-21T03:41:26;6.00;;;2.70;;
59442;SDS011;45247;47.466;19.004;2024-02-21T03:43:55;5.78;;;2.78;;
59442;SDS011;45247;47.466;19.004;2024-02-21T03:46:23;8.40;;;3.15;;
59442;SDS011;45247;47.466;19.004;2024-02-21T03:48:52;8.50;;;3.20;;
59442;SDS011;45247;47.466;19.004;2024-02-21T03:51:22;5.43;;;2.78;;
59442;SDS011;45247;47.466;19.004;2024-02-21T03:53:50;7.82;;;3.20;;
59442;SDS011;45247;47.466;19.004;2024-02-21T03:56:18;7.97;;;3.20;;
59442;SDS011;45247;47.466;19.004;2024-02-21T03:58:46;7.45;;;3.78;;
59442;SDS011;45247;47.466;19.004;2024-02-21T04:01:15;6.85;;;3.67;;
59442;SDS011;45247;47.466;19.004;2024-02-21T04:03:44;7.72;;;3.88;;
59442;SDS011;45247;47.466;19.004;2024-02-21T04:06:12;11.20;;;3.88;;
59442;SDS011;45247;47.466;19.004;2024-02-21T04:08:42;13.25;;;4.32;;
59442;SDS011;45247;47.466;19.004;2024-02-21T04:11:10;7.20;;;3.53;;
59442;SDS011;45247;47.466;19.004;2024-02-21T04:13:38;10.02;;;4.20;;
59442;SDS011;45247;47.466;19.004;2024-02-21T04:16:06;11.40;;;4.00;;
59442;SDS011;45247;47.466;19.004;2024-02-21T04:18:34;6.50;;;4.05;;
59442;SDS011;45247;47.466;19.004;2024-02-21T04:21:02;11.13;;;4.10;;
59442;SDS011;45247;47.466;19.004;2024-02-21T04:23:31;8.57;;;4.22;;
59442;SDS011;45247;47.466;19.004;2024-02-21T04:26:00;9.63;;;4.07;;
59442;SDS011;45247;47.466;19.004;2024-02-21T04:28:28;9.43;;;4.70;;
59442;SDS011;45247;47.466;19.004;2024-02-21T04:30:57;8.73;;;4.25;;
59442;SDS011;45247;47.466;19.004;2024-02-21T04:33:25;8.15;;;4.90;;
59442;SDS011;45247;47.466;19.004;2024-02-21T04:35:53;9.38;;;4.63;;
59442;SDS011;45247;47.466;19.004;2024-02-21T04:38:21;12.40;;;5.55;;
59442;SDS011;45247;47.466;19.004;2024-02-21T04:40:49;7.65;;;4.15;;
59442;SDS011;45247;47.466;19.004;2024-02-21T04:43:19;7.15;;;4.53;;
59442;SDS011;45247;47.466;19.004;2024-02-21T04:45:47;8.57;;;4.50;;
59442;SDS011;45247;47.466;19.004;2024-02-21T04:48:15;9.98;;;4.82;;
59442;SDS011;45247;47.466;19.004;2024-02-21T04:50:43;9.20;;;4.57;;
59442;SDS011;45247;47.466;19.004;2024-02-21T04:53:11;9.57;;;4.63;;
59442;SDS011;45247;47.466;19.004;2024-02-21T04:55:40;11.25;;;4.70;;
59442;SDS011;45247;47.466;19.004;2024-02-21T04:58:08;11.57;;;4.93;;
59442;SDS011;45247;47.466;19.004;2024-02-21T05:00:38;7.95;;;4.15;;
59442;SDS011;45247;47.466;19.004;2024-02-21T05:03:07;8.65;;;4.60;;
59442;SDS011;45247;47.466;19.004;2024-02-21T05:05:52;8.45;;;4.45;;
59442;SDS011;45247;47.466;19.004;2024-02-21T05:08:20;6.93;;;4.20;;
59442;SDS011;45247;47.466;19.004;2024-02-21T05:10:48;5.60;;;3.35;;
59442;SDS011;45247;47.466;19.004;2024-02-21T05:13:17;9.68;;;3.97;;
59442;SDS011;45247;47.466;19.004;2024-02-21T05:15:46;8.98;;;3.58;;
59442;SDS011;45247;47.466;19.004;2024-02-21T05:18:14;6.68;;;3.75;;
59442;SDS011;45247;47.466;19.004;2024-02-21T05:20:43;11.20;;;4.05;;
59442;SDS011;45247;47.466;19.004;2024-02-21T05:23:11;7.15;;;3.50;;
59442;SDS011;45247;47.466;19.004;2024-02-21T05:25:39;8.88;;;3.78;;
59442;SDS011;45247;47.466;19.004;2024-02-21T05:28:07;8.82;;;4.57;;
59442;SDS011;45247;47.466;19.004;2024-02-21T05:30:35;7.75;;;4.00;;
59442;SDS011;45247;47.466;19.004;2024-02-21T05:33:05;7.60;;;4.32;;
59442;SDS011;45247;47.466;19.004;2024-02-21T05:35:34;8.65;;;4.03;;
59442;SDS011;45247;47.466;19.004;2024-02-21T05:38:03;8.95;;;4.47;;
59442;SDS011;45247;47.466;19.004;2024-02-21T05:40:38;6.88;;;4.40;;
59442;SDS011;45247;47.466;19.004;2024-02-21T05:43:06;10.00;;;3.83;;
59442;SDS011;45247;47.466;19.004;2024-02-21T05:45:35;7.95;;;3.85;;
59442;SDS011;45247;47.466;19.004;2024-02-21T05:48:04;6.47;;;3.97;;
59442;SDS011;45247;47.466;19.004;2024-02-21T05:50:34;9.18;;;4.13;;
59442;SDS011;45247;47.466;19.004;2024-02-21T05:53:02;11.82;;;4.10;;
59442;SDS011;45247;47.466;19.004;2024-02-21T05:55:31;8.38;;;4.22;;
59442;SDS011;45247;47.466;19.004;2024-02-21T05:57:59;11.65;;;3.88;;
59442;SDS011;45247;47.466;19.004;2024-02-21T06:00:27;7.97;;;3.85;;
59442;SDS011;45247;47.466;19.004;2024-02-21T06:02:56;11.98;;;4.85;;
59442;SDS011;45247;47.466;19.004;2024-02-21T06:05:26;8.95;;;4.18;;
59442;SDS011;45247;47.466;19.004;2024-02-21T06:07:54;9.75;;;4.20;;
59442;SDS011;45247;47.466;19.004;2024-02-21T06:10:23;8.75;;;3.67;;
59442;SDS011;45247;47.466;19.004;2024-02-21T06:12:51;10.73;;;3.72;;
59442;SDS011;45247;47.466;19.004;2024-02-21T06:15:19;11.43;;;4.07;;
59442;SDS011;45247;47.466;19.004;2024-02-21T06:17:47;6.60;;;3.40;;
59442;SDS011;45247;47.466;19.004;2024-02-21T06:20:16;7.50;;;3.45;;
59442;SDS011;45247;47.466;19.004;2024-02-21T06:22:45;8.30;;;3.55;;
59442;SDS011;45247;47.466;19.004;2024-02-21T06:25:13;12.90;;;3.67;;
59442;SDS011;45247;47.466;19.004;2024-02-21T06:27:41;7.88;;;3.45;;
59442;SDS011;45247;47.466;19.004;2024-02-21T06:30:10;15.27;;;3.78;;
59442;SDS011;45247;47.466;19.004;2024-02-21T06:32:39;11.88;;;3.90;;
59442;SDS011;45247;47.466;19.004;2024-02-21T06:35:07;5.57;;;2.88;;
59442;SDS011;45247;47.466;19.004;2024-02-21T06:37:36;7.72;;;3.42;;
59442;SDS011;45247;47.466;19.004;2024-02-21T06:40:07;8.90;;;3.60;;
59442;SDS011;45247;47.466;19.004;2024-02-21T06:42:35;10.05;;;3.70;;
59442;SDS011;45247;47.466;19.004;2024-02-21T06:45:04;6.78;;;3.17;;
59442;SDS011;45247;47.466;19.004;2024-02-21T06:47:33;7.60;;;3.00;;
59442;SDS011;45247;47.466;19.004;2024-02-21T06:50:01;5.95;;;3.28;;
59442;SDS011;45247;47.466;19.004;2024-02-21T06:52:30;9.23;;;3.15;;
59442;SDS011;45247;47.466;19.004;2024-02-21T06:54:58;8.32;;;3.30;;
59442;SDS011;45247;47.466;19.004;2024-02-21T06:57:30;8.45;;;3.33;;
59442;SDS011;45247;47.466;19.004;2024-02-21T06:59:58;9.00;;;4.03;;
59442;SDS011;45247;47.466;19.004;2024-02-21T07:02:26;8.80;;;3.22;;
59442;SDS011;45247;47.466;19.004;2024-02-21T07:04:55;8.90;;;3.55;;
59442;SDS011;45247;47.466;19.004;2024-02-21T07:07:23;10.38;;;3.63;;
59442;SDS011;45247;47.466;19.004;2024-02-21T07:09:52;12.02;;;3.75;;
59442;SDS011;45247;47.466;19.004;2024-02-21T07:12:21;13.35;;;3.65;;
59442;SDS011;45247;47.466;19.004;2024-02-21T07:14:50;8.50;;;2.97;;
59442;SDS011;45247;47.466;19.004;2024-02-21T07:17:18;10.82;;;3.38;;
59442;SDS011;45247;47.466;19.004;2024-02-21T07:19:47;10.63;;;3.65;;
59442;SDS011;45247;47.466;19.004;2024-02-21T07:22:15;12.73;;;4.10;;
59442;SDS011;45247;47.466;19.004;2024-02-21T07:24:43;11.38;;;3.03;;
59442;SDS011;45247;47.466;19.004;2024-02-21T07:27:13;9.95;;;3.17;;
59442;SDS011;45247;47.466;19.004;2024-02-21T07:29:43;9.07;;;2.72;;
59442;SDS011;45247;47.466;19.004;2024-02-21T07:32:15;8.80;;;2.83;;
59442;SDS011;45247;47.466;19.004;2024-02-21T07:34:43;10.82;;;2.67;;
59442;SDS011;45247;47.466;19.004;2024-02-21T07:37:12;8.25;;;3.45;;
59442;SDS011;45247;47.466;19.004;2024-02-21T07:39:40;10.27;;;3.58;;
59442;SDS011;45247;47.466;19.004;2024-02-21T07:42:08;8.55;;;3.10;;
59442;SDS011;45247;47.466;19.004;2024-02-21T07:44:37;9.25;;;3.15;;
59442;SDS011;45247;47.466;19.004;2024-02-21T07:47:05;11.10;;;3.10;;
59442;SDS011;45247;47.466;19.004;2024-02-21T07:49:42;9.55;;;3.17;;
59442;SDS011;45247;47.466;19.004;2024-02-21T07:52:11;9.38;;;3.13;;
59442;SDS011;45247;47.466;19.004;2024-02-21T07:54:39;7.70;;;3.00;;
59442;SDS011;45247;47.466;19.004;2024-02-21T07:57:08;6.32;;;2.45;;
59442;SDS011;45247;47.466;19.004;2024-02-21T07:59:36;6.07;;;2.90;;
59442;SDS011;45247;47.466;19.004;2024-02-21T08:02:04;9.75;;;3.13;;
59442;SDS011;45247;47.466;19.004;2024-02-21T08:04:33;7.55;;;2.60;;
59442;SDS011;45247;47.466;19.004;2024-02-21T08:07:03;12.00;;;3.40;;
59442;SDS011;45247;47.466;19.004;2024-02-21T08:09:31;7.10;;;3.17;;
59442;SDS011;45247;47.466;19.004;2024-02-21T08:11:59;9.95;;;3.35;;
59442;SDS011;45247;47.466;19.004;2024-02-21T08:14:27;5.50;;;2.33;;
59442;SDS011;45247;47.466;19.004;2024-02-21T08:16:56;9.35;;;3.25;;
59442;SDS011;45247;47.466;19.004;2024-02-21T08:19:26;11.55;;;2.70;;
59442;SDS011;45247;47.466;19.004;2024-02-21T08:21:54;10.57;;;2.75;;
59442;SDS011;45247;47.466;19.004;2024-02-21T08:24:24;12.15;;;3.22;;
59442;SDS011;45247;47.466;19.004;2024-02-21T08:26:52;9.23;;;3.38;;
59442;SDS011;45247;47.466;19.004;2024-02-21T08:29:20;9.98;;;2.63;;
59442;SDS011;45247;47.466;19.004;2024-02-21T08:31:48;8.48;;;2.88;;
59442;SDS011;45247;47.466;19.004;2024-02-21T08:34:17;18.10;;;3.28;;
59442;SDS011;45247;47.466;19.004;2024-02-21T08:36:45;9.65;;;3.03;;
59442;SDS011;45247;47.466;19.004;2024-02-21T08:39:13;12.27;;;2.50;;
59442;SDS011;45247;47.466;19.004;2024-02-21T08:41:45;12.65;;;3.35;;
59442;SDS011;45247;47.466;19.004;2024-02-21T08:44:23;8.85;;;2.42;;
59442;SDS011;45247;47.466;19.004;2024-02-21T08:46:53;10.48;;;3.15;;
59442;SDS011;45247;47.466;19.004;2024-02-21T08:49:21;8.73;;;2.90;;
59442;SDS011;45247;47.466;19.004;2024-02-21T08:51:53;10.48;;;2.50;;
59442;SDS011;45247;47.466;19.004;2024-02-21T08:54:21;6.55;;;2.65;;
59442;SDS011;45247;47.466;19.004;2024-02-21T08:56:51;10.02;;;3.28;;
59442;SDS011;45247;47.466;19.004;2024-02-21T08:59:19;11.30;;;3.45;;
59442;SDS011;45247;47.466;19.004;2024-02-21T09:01:47;9.25;;;3.10;;
59442;SDS011;45247;47.466;19.004;2024-02-21T09:04:16;6.63;;;2.25;;
59442;SDS011;45247;47.466;19.004;2024-02-21T09:06:44;10.05;;;2.83;;
59442;SDS011;45247;47.466;19.004;2024-02-21T09:09:13;7.85;;;2.63;;
59442;SDS011;45247;47.466;19.004;2024-02-21T09:11:41;7.47;;;3.22;;
59442;SDS011;45247;47.466;19.004;2024-02-21T09:14:10;10.95;;;2.92;;
59442;SDS011;45247;47.466;19.004;2024-02-21T09:16:39;9.40;;;2.90;;
59442;SDS011;45247;47.466;19.004;2024-02-21T09:19:07;8.85;;;3.08;;
59442;SDS011;45247;47.466;19.004;2024-02-21T09:21:37;10.55;;;3.58;;
59442;SDS011;45247;47.466;19.004;2024-02-21T09:24:06;7.18;;;3.00;;
59442;SDS011;45247;47.466;19.004;2024-02-21T09:26:34;9.25;;;2.72;;
59442;SDS011;45247;47.466;19.004;2024-02-21T09:29:02;12.38;;;2.70;;
59442;SDS011;45247;47.466;19.004;2024-02-21T09:31:33;10.00;;;3.15;;
59442;SDS011;45247;47.466;19.004;2024-02-21T09:34:01;6.32;;;2.45;;
59442;SDS011;45247;47.466;19.004;2024-02-21T09:36:30;8.93;;;3.30;;
59442;SDS011;45247;47.466;19.004;2024-02-21T09:38:58;9.80;;;2.67;;
59442;SDS011;45247;47.466;19.004;2024-02-21T09:41:26;12.98;;;3.70;;
59442;SDS011;45247;47.466;19.004;2024-02-21T09:43:55;11.90;;;2.97;;
59442;SDS011;45247;47.466;19.004;2024-02-21T09:46:25;12.68;;;3.33;;
59442;SDS011;45247;47.466;19.004;2024-02-21T09:49:07;6.53;;;2.63;;
59442;SDS011;45247;47.466;19.004;2024-02-21T09:51:49;12.40;;;3.35;;
59442;SDS011;45247;47.466;19.004;2024-02-21T09:54:19;9.00;;;2.78;;
59442;SDS011;45247;47.466;19.004;2024-02-21T09:56:47;11.32;;;3.10;;
59442;SDS011;45247;47.466;19.004;2024-02-21T09:59:16;6.65;;;2.75;;
59442;SDS011;45247;47.466;19.004;2024-02-21T10:01:44;7.40;;;2.72;;
59442;SDS011;45247;47.466;19.004;2024-02-21T10:04:15;6.18;;;2.70;;
59442;SDS011;45247;47.466;19.004;2024-02-21T10:06:45;7.75;;;2.95;;
59442;SDS011;45247;47.466;19.004;2024-02-21T10:09:20;9.75;;;3.15;;
59442;SDS011;45247;47.466;19.004;2024-02-21T10:11:50;10.93;;;3.10;;
59442;SDS011;45247;47.466;19.004;2024-02-21T10:14:18;7.13;;;2.72;;
59442;SDS011;45247;47.466;19.004;2024-02-21T10:16:47;9.63;;;3.10;;
59442;SDS011;45247;47.466;19.004;2024-02-21T10:19:18;12.45;;;3.60;;
59442;SDS011;45247;47.466;19.004;2024-02-21T10:21:59;10.30;;;2.78;;
59442;SDS011;45247;47.466;19.004;2024-02-21T10:24:30;11.13;;;3.03;;
59442;SDS011;45247;47.466;19.004;2024-02-21T10:26:59;9.27;;;3.28;;
59442;SDS011;45247;47.466;19.004;2024-02-21T10:29:30;13.05;;;2.85;;
59442;SDS011;45247;47.466;19.004;2024-02-21T10:32:05;7.75;;;3.38;;
59442;SDS011;45247;47.466;19.004;2024-02-21T10:34:37;11.70;;;3.40;;
59442;SDS011;45247;47.466;19.004;2024-02-21T10:37:07;9.10;;;3.35;;
59442;SDS011;45247;47.466;19.004;2024-02-21T10:39:37;8.60;;;3.08;;
59442;SDS011;45247;47.466;19.004;2024-02-21T10:42:06;7.40;;;2.67;;
59442;SDS011;45247;47.466;19.004;2024-02-21T10:44:36;11.07;;;3.70;;
59442;SDS011;45247;47.466;19.004;2024-02-21T10:47:07;8.20;;;3.05;;
59442;SDS011;45247;47.466;19.004;2024-02-21T10:49:39;9.13;;;3.55;;
59442;SDS011;45247;47.466;19.004;2024-02-21T10:52:13;15.23;;;4.38;;
59442;SDS011;45247;47.466;19.004;2024-02-21T10:54:48;8.45;;;2.97;;
59442;SDS011;45247;47.466;19.004;2024-02-21T10:57:23;6.95;;;2.65;;
59442;SDS011;45247;47.466;19.004;2024-02-21T10:59:55;9.50;;;3.22;;
59442;SDS011;45247;47.466;19.004;2024-02-21T11:02:23;12.13;;;3.50;;
59442;SDS011;45247;47.466;19.004;2024-02-21T11:04:54;12.02;;;3.92;;
59442;SDS011;45247;47.466;19.004;2024-02-21T11:07:23;13.98;;;3.67;;
59442;SDS011;45247;47.466;19.004;2024-02-21T11:09:52;10.20;;;3.30;;
59442;SDS011;45247;47.466;19.004;2024-02-21T11:12:22;12.52;;;3.58;;
59442;SDS011;45247;47.466;19.004;2024-02-21T11:14:52;11.90;;;3.45;;
59442;SDS011;45247;47.466;19.004;2024-02-21T11:17:20;8.07;;;2.90;;
59442;SDS011;45247;47.466;19.004;2024-02-21T11:19:54;9.00;;;3.05;;
59442;SDS011;45247;47.466;19.004;2024-02-21T11:22:23;10.35;;;2.75;;
59442;SDS011;45247;47.466;19.004;2024-02-21T11:25:05;9.00;;;2.75;;
59442;SDS011;45247;47.466;19.004;2024-02-21T11:27:35;13.68;;;3.35;;
59442;SDS011;45247;47.466;19.004;2024-02-21T11:30:04;8.20;;;2.60;;
59442;SDS011;45247;47.466;19.004;2024-02-21T11:32:33;10.27;;;3.15;;
59442;SDS011;45247;47.466;19.004;2024-02-21T11:35:03;10.77;;;3.47;;
59442;SDS011;45247;47.466;19.004;2024-02-21T11:37:34;11.48;;;3.70;;
59442;SDS011;45247;47.466;19.004;2024-02-21T11:40:04;9.90;;;2.80;;
59442;SDS011;45247;47.466;19.004;2024-02-21T11:42:38;9.68;;;3.53;;
59442;SDS011;45247;47.466;19.004;2024-02-21T11:45:06;8.98;;;3.10;;
59442;SDS011;45247;47.466;19.004;2024-02-21T11:47:36;10.10;;;3.45;;
59442;SDS011;45247;47.466;19.004;2024-02-21T11:50:10;10.23;;;3.95;;
59442;SDS011;45247;47.466;19.004;2024-02-21T11:52:42;11.02;;;3.08;;
59442;SDS011;45247;47.466;19.004;2024-02-21T11:55:10;13.88;;;3.83;;
59442;SDS011;45247;47.466;19.004;2024-02-21T11:57:38;8.40;;;3.08;;
59442;SDS011;45247;47.466;19.004;2024-02-21T12:00:14;10.52;;;2.92;;
59442;SDS011;45247;47.466;19.004;2024-02-21T12:02:43;7.93;;;3.10;;
59442;SDS011;45247;47.466;19.004;2024-02-21T12:05:13;14.30;;;3.70;;
59442;SDS011;45247;47.466;19.004;2024-02-21T12:07:42;9.82;;;3.25;;
59442;SDS011;45247;47.466;19.004;2024-02-21T12:10:11;9.45;;;3.17;;
59442;SDS011;45247;47.466;19.004;2024-02-21T12:12:40;10.35;;;3.17;;
59442;SDS011;45247;47.466;19.004;2024-02-21T12:15:08;9.32;;;3.47;;
59442;SDS011;45247;47.466;19.004;2024-02-21T12:17:37;10.77;;;3.55;;
59442;SDS011;45247;47.466;19.004;2024-02-21T12:20:07;10.15;;;2.72;;
59442;SDS011;45247;47.466;19.004;2024-02-21T12:22:41;7.55;;;2.53;;
59442;SDS011;45247;47.466;19.004;2024-02-21T12:25:15;6.55;;;2.20;;
59442;SDS011;45247;47.466;19.004;2024-02-21T12:27:45;8.07;;;2.58;;
59442;SDS011;45247;47.466;19.004;2024-02-21T12:30:15;7.85;;;2.08;;
59442;SDS011;45247;47.466;19.004;2024-02-21T12:32:44;6.65;;;2.33;;
59442;SDS011;45247;47.466;19.004;2024-02-21T12:35:12;12.75;;;2.60;;
59442;SDS011;45247;47.466;19.004;2024-02-21T12:37:42;9.25;;;2.42;;
59442;SDS011;45247;47.466;19.004;2024-02-21T12:40:10;8.77;;;2.22;;
59442;SDS011;45247;47.466;19.004;2024-02-21T12:42:41;5.35;;;2.00;;
59442;SDS011;45247;47.466;19.004;2024-02-21T12:45:09;7.78;;;2.22;;
59442;SDS011;45247;47.466;19.004;2024-02-21T12:47:37;8.55;;;2.25;;
59442;SDS011;45247;47.466;19.004;2024-02-21T12:50:07;9.30;;;2.60;;
59442;SDS011;45247;47.466;19.004;2024-02-21T12:52:36;6.75;;;2.17;;
59442;SDS011;45247;47.466;19.004;2024-02-21T12:55:06;7.20;;;2.33;;
59442;SDS011;45247;47.466;19.004;2024-02-21T12:57:37;9.70;;;3.00;;
59442;SDS011;45247;47.466;19.004;2024-02-21T13:00:06;6.95;;;2.47;;
59442;SDS011;45247;47.466;19.004;2024-02-21T13:02:37;8.48;;;2.65;;
59442;SDS011;45247;47.466;19.004;2024-02-21T13:05:06;12.38;;;2.97;;
59442;SDS011;45247;47.466;19.004;2024-02-21T13:07:34;9.88;;;3.83;;
59442;SDS011;45247;47.466;19.004;2024-02-21T13:10:03;8.15;;;3.13;;
59442;SDS011;45247;47.466;19.004;2024-02-21T13:12:33;8.30;;;2.45;;
59442;SDS011;45247;47.466;19.004;2024-02-21T13:15:01;10.45;;;3.20;;
59442;SDS011;45247;47.466;19.004;2024-02-21T13:17:29;6.80;;;2.72;;
59442;SDS011;45247;47.466;19.004;2024-02-21T13:19:58;11.60;;;3.13;;
59442;SDS011;45247;47.466;19.004;2024-02-21T13:22:27;10.07;;;3.15;;
59442;SDS011;45247;47.466;19.004;2024-02-21T13:24:55;11.95;;;2.92;;
59442;SDS011;45247;47.466;19.004;2024-02-21T13:27:24;8.90;;;2.85;;
59442;SDS011;45247;47.466;19.004;2024-02-21T13:29:54;8.82;;;3.28;;
59442;SDS011;45247;47.466;19.004;2024-02-21T13:32:22;15.68;;;3.33;;
59442;SDS011;45247;47.466;19.004;2024-02-21T13:34:50;7.20;;;2.85;;
59442;SDS011;45247;47.466;19.004;2024-02-21T13:37:19;12.82;;;3.42;;
59442;SDS011;45247;47.466;19.004;2024-02-21T13:39:48;11.07;;;3.05;;
59442;SDS011;45247;47.466;19.004;2024-02-21T13:42:16;10.20;;;3.30;;
59442;SDS011;45247;47.466;19.004;2024-02-21T13:44:45;9.93;;;3.15;;
59442;SDS011;45247;47.466;19.004;2024-02-21T13:47:15;9.20;;;2.80;;
59442;SDS011;45247;47.466;19.004;2024-02-21T13:49:44;9.18;;;3.40;;
59442;SDS011;45247;47.466;19.004;2024-02-21T13:52:12;11.50;;;2.92;;
59442;SDS011;45247;47.466;19.004;2024-02-21T13:54:40;9.68;;;2.75;;
59442;SDS011;45247;47.466;19.004;2024-02-21T13:57:10;9.43;;;2.88;;
59442;SDS011;45247;47.466;19.004;2024-02-21T13:59:38;9.68;;;2.47;;
59442;SDS011;45247;47.466;19.004;2024-02-21T14:02:09;13.48;;;2.80;;
59442;SDS011;45247;47.466;19.004;2024-02-21T14:04:38;8.82;;;3.05;;
59442;SDS011;45247;47.466;19.004;2024-02-21T14:07:07;12.27;;;3.28;;
59442;SDS011;45247;47.466;19.004;2024-02-21T14:09:35;9.38;;;2.65;;
59442;SDS011;45247;47.466;19.004;2024-02-21T14:12:06;6.05;;;2.58;;
59442;SDS011;45247;47.466;19.004;2024-02-21T14:14:35;12.60;;;2.45;;
59442;SDS011;45247;47.466;19.004;2024-02-21T14:17:06;8.82;;;2.50;;
59442;SDS011;45247;47.466;19.004;2024-02-21T14:19:34;11.98;;;2.72;;
59442;SDS011;45247;47.466;19.004;2024-02-21T14:22:04;13.75;;;2.88;;
59442;SDS011;45247;47.466;19.004;2024-02-21T14:24:32;8.18;;;3.28;;
59442;SDS011;45247;47.466;19.004;2024-02-21T14:27:01;10.25;;;3.22;;
59442;SDS011;45247;47.466;19.004;2024-02-21T14:29:30;13.65;;;2.92;;
59442;SDS011;45247;47.466;19.004;2024-02-21T14:31:58;15.13;;;2.75;;
59442;SDS011;45247;47.466;19.004;2024-02-21T14:34:26;6.35;;;2.30;;
59442;SDS011;45247;47.466;19.004;2024-02-21T14:36:55;5.55;;;2.00;;
59442;SDS011;45247;47.466;19.004;2024-02-21T14:39:24;10.50;;;3.13;;
59442;SDS011;45247;47.466;19.004;2024-02-21T14:41:53;11.68;;;2.47;;